createdAt,value
2022-08-25T00:00:36.715Z,98511.00
2022-08-25T00:05:41.219Z,98494.00
2022-08-25T00:10:44.011Z,98506.00
2022-08-25T00:16:03.409Z,98504.00
2022-08-25T00:21:07.842Z,98506.00
2022-08-25T00:26:11.471Z,98507.00
2022-08-25T00:31:20.244Z,98499.00
2022-08-25T00:36:23.062Z,98500.00
2022-08-25T00:41:27.242Z,98507.00
2022-08-25T00:46:37.194Z,98496.00
2022-08-25T00:51:52.103Z,98486.00
2022-08-25T00:56:58.822Z,98489.00
2022-08-25T01:02:02.659Z,98486.00
2022-08-25T01:07:15.523Z,98485.00
2022-08-25T01:12:21.786Z,98484.00
2022-08-25T01:17:27.966Z,98474.00
2022-08-25T01:22:32.379Z,98471.00
2022-08-25T01:27:35.175Z,98469.00
2022-08-25T01:32:37.899Z,98465.00
2022-08-25T01:37:41.042Z,98465.00
2022-08-25T01:42:54.120Z,98466.00
2022-08-25T01:47:57.092Z,98463.00
2022-08-25T01:53:11.356Z,98458.00
2022-08-25T01:58:14.141Z,98454.00
2022-08-25T02:03:19.077Z,98458.00
2022-08-25T02:08:23.454Z,98462.00
2022-08-25T02:13:26.886Z,98457.00
2022-08-25T02:18:34.181Z,98461.00
2022-08-25T02:23:37.034Z,98466.00
2022-08-25T02:28:39.941Z,98461.00
2022-08-25T02:33:42.919Z,98457.00
2022-08-25T02:38:46.294Z,98450.00
2022-08-25T02:43:49.747Z,98454.00
2022-08-25T02:48:53.423Z,98457.00
2022-08-25T02:53:57.710Z,98442.00
2022-08-25T02:59:01.333Z,98445.00
2022-08-25T03:04:04.691Z,98448.00
2022-08-25T03:09:08.062Z,98442.00
2022-08-25T03:14:11.280Z,98445.00
2022-08-25T03:19:14.660Z,98442.00
2022-08-25T03:24:17.481Z,98434.00
2022-08-25T03:29:21.141Z,98440.00
2022-08-25T03:34:24.165Z,98434.00
2022-08-25T03:39:27.667Z,98440.00
2022-08-25T03:44:30.462Z,98434.00
2022-08-25T03:49:33.222Z,98432.00
2022-08-25T03:54:37.488Z,98426.00
2022-08-25T03:59:40.660Z,98427.00
2022-08-25T04:04:43.452Z,98432.00
2022-08-25T04:09:46.400Z,98427.00
2022-08-25T04:14:49.288Z,98418.00
2022-08-25T04:19:52.184Z,98417.00
2022-08-25T04:24:55.017Z,98428.00
2022-08-25T04:29:57.758Z,98433.00
2022-08-25T04:35:00.569Z,98431.00
2022-08-25T04:40:04.679Z,98430.00
2022-08-25T04:45:08.017Z,98427.00
2022-08-25T04:50:11.222Z,98428.00
2022-08-25T04:55:14.783Z,98427.00
2022-08-25T05:00:18.313Z,98430.00
2022-08-25T05:05:21.002Z,98431.00
2022-08-25T05:10:24.660Z,98429.00
2022-08-25T05:15:47.731Z,98420.00
2022-08-25T05:20:55.167Z,98423.00
2022-08-25T05:26:07.361Z,98420.00
2022-08-25T05:31:16.284Z,98418.00
2022-08-25T05:36:20.325Z,98409.00
2022-08-25T05:41:27.846Z,98415.00
2022-08-25T05:46:31.939Z,98407.00
2022-08-25T05:51:34.822Z,98421.00
2022-08-25T05:56:37.781Z,98426.00
2022-08-25T06:01:59.044Z,98425.00
2022-08-25T06:07:01.791Z,98426.00
2022-08-25T06:12:04.843Z,98425.00
2022-08-25T06:17:10.902Z,98421.00
2022-08-25T06:22:13.726Z,98425.00
2022-08-25T06:27:16.497Z,98418.00
2022-08-25T06:32:19.243Z,98423.00
2022-08-25T06:37:25.199Z,98411.00
2022-08-25T06:42:28.589Z,98422.00
2022-08-25T06:47:31.391Z,98418.00
2022-08-25T06:52:34.238Z,98412.00
2022-08-25T06:57:37.032Z,98408.00
2022-08-25T07:02:39.984Z,98408.00
2022-08-25T07:07:44.975Z,98409.00
2022-08-25T07:12:47.823Z,98406.00
2022-08-25T07:17:50.681Z,98411.00
2022-08-25T07:22:53.735Z,98410.00
2022-08-25T07:27:58.842Z,98402.00
2022-08-25T07:33:05.894Z,98414.00
2022-08-25T07:38:13.046Z,98415.00
2022-08-25T07:43:23.277Z,98413.00
2022-08-25T07:48:26.086Z,98404.00
2022-08-25T07:53:28.850Z,98411.00
2022-08-25T07:58:31.612Z,98410.00
2022-08-25T08:03:50.648Z,98412.00
2022-08-25T08:08:57.937Z,98405.00
2022-08-25T08:14:02.464Z,98411.00
2022-08-25T08:19:06.348Z,98405.00
2022-08-25T08:24:24.844Z,98393.00
2022-08-25T08:29:32.758Z,98407.00
2022-08-25T08:34:36.672Z,98403.00
2022-08-25T08:39:39.702Z,98396.00
2022-08-25T08:44:42.726Z,98396.00
2022-08-25T08:50:01.291Z,98394.00
2022-08-25T08:55:25.661Z,98380.00
2022-08-25T09:00:29.262Z,98377.00
2022-08-25T09:05:46.712Z,98371.00
2022-08-25T09:11:26.477Z,98375.00
2022-08-25T09:17:06.565Z,98362.00
2022-08-25T09:22:35.273Z,98372.00
2022-08-25T09:27:59.724Z,98374.00
2022-08-25T09:33:05.353Z,98362.00
2022-08-25T09:38:26.518Z,98363.00
2022-08-25T09:43:44.728Z,98354.00
2022-08-25T09:48:56.961Z,98359.00
2022-08-25T09:54:15.824Z,98349.00
2022-08-25T09:59:34.937Z,98343.00
2022-08-25T10:04:40.113Z,98328.00
2022-08-25T10:09:51.080Z,98336.00
2022-08-25T10:14:54.431Z,98335.00
2022-08-25T10:20:19.968Z,98324.00
2022-08-25T10:25:31.223Z,98309.00
2022-08-25T10:30:51.692Z,98314.00
2022-08-25T10:36:20.329Z,98301.00
2022-08-25T10:41:59.840Z,98296.00
2022-08-25T10:47:41.634Z,98307.00
2022-08-25T10:52:48.199Z,98296.00
2022-08-25T10:58:19.893Z,98293.00
2022-08-25T11:03:50.223Z,98283.00
2022-08-25T11:08:59.505Z,98268.00
2022-08-25T11:14:19.317Z,98274.00
2022-08-25T11:19:33.796Z,98265.00
2022-08-25T11:24:47.312Z,98260.00
2022-08-25T11:30:10.080Z,98261.00
2022-08-25T11:35:16.391Z,98263.00
2022-08-25T11:40:50.044Z,98255.00
2022-08-25T11:46:17.756Z,98246.00
2022-08-25T11:51:40.667Z,98249.00
2022-08-25T11:56:51.073Z,98242.00
2022-08-25T12:01:57.153Z,98247.00
2022-08-25T12:07:10.701Z,98252.00
2022-08-25T12:12:55.229Z,98237.00
2022-08-25T12:18:33.967Z,98237.00
2022-08-25T12:24:04.412Z,98225.00
2022-08-25T12:29:35.204Z,98230.00
2022-08-25T12:34:52.978Z,98228.00
2022-08-25T12:39:58.779Z,98227.00
2022-08-25T12:45:26.526Z,98223.00
2022-08-25T12:50:43.276Z,98222.00
2022-08-25T12:55:51.816Z,98216.00
2022-08-25T13:01:03.633Z,98210.00
2022-08-25T13:06:13.186Z,98209.00
2022-08-25T13:11:39.800Z,98203.00
2022-08-25T13:16:57.648Z,98197.00
2022-08-25T13:22:04.008Z,98188.00
2022-08-25T13:27:09.735Z,98182.00
2022-08-25T13:32:14.835Z,98178.00
2022-08-25T13:37:29.578Z,98175.00
2022-08-25T13:42:33.053Z,98166.00
2022-08-25T13:47:45.262Z,98162.00
2022-08-25T13:53:15.683Z,98164.00
2022-08-25T13:58:44.644Z,98159.00
2022-08-25T14:03:48.572Z,98151.00
2022-08-25T14:09:01.562Z,98147.00
2022-08-25T14:14:10.311Z,98155.00
2022-08-25T14:19:20.315Z,98136.00
2022-08-25T14:24:24.559Z,98145.00
2022-08-25T14:29:27.438Z,98140.00
2022-08-25T14:34:36.827Z,98128.00
2022-08-25T14:39:39.577Z,98123.00
2022-08-25T14:44:47.188Z,98117.00
2022-08-25T14:49:50.302Z,98121.00
2022-08-25T14:54:53.459Z,98117.00
2022-08-25T14:59:56.764Z,98117.00
2022-08-25T15:05:05.974Z,98111.00
2022-08-25T15:10:09.845Z,98116.00
2022-08-25T15:15:16.768Z,98103.00
2022-08-25T15:20:20.704Z,98102.00
2022-08-25T15:25:24.550Z,98108.00
2022-08-25T15:30:31.279Z,98101.00
2022-08-25T15:35:35.312Z,98102.00
2022-08-25T15:40:39.599Z,98093.00
2022-08-25T15:45:42.510Z,98090.00
2022-08-25T15:50:45.319Z,98087.00
2022-08-25T15:55:48.327Z,98076.00
2022-08-25T16:00:56.474Z,98072.00
2022-08-25T16:06:02.879Z,98069.00
2022-08-25T16:11:07.284Z,98075.00
2022-08-25T16:16:10.096Z,98078.00
2022-08-25T16:21:15.678Z,98074.00
2022-08-25T16:26:18.887Z,98077.00
2022-08-25T16:31:21.692Z,98068.00
2022-08-25T16:36:27.119Z,98075.00
2022-08-25T16:41:35.756Z,98069.00
2022-08-25T16:46:40.683Z,98069.00
2022-08-25T16:51:43.765Z,98077.00
2022-08-25T16:56:46.926Z,98061.00
2022-08-25T17:01:54.418Z,98064.00
2022-08-25T17:06:57.442Z,98063.00
2022-08-25T17:12:00.943Z,98071.00
2022-08-25T17:17:07.212Z,98066.00
2022-08-25T17:22:14.275Z,98080.00
2022-08-25T17:27:18.612Z,98076.00
2022-08-25T17:32:21.442Z,98078.00
2022-08-25T17:37:33.122Z,98074.00
2022-08-25T17:42:37.114Z,98083.00
2022-08-25T17:47:40.013Z,98081.00
2022-08-25T17:52:42.757Z,98085.00
2022-08-25T17:57:45.437Z,98091.00
2022-08-25T18:02:48.588Z,98093.00
2022-08-25T18:07:51.384Z,98097.00
2022-08-25T18:12:54.076Z,98112.00
2022-08-25T18:17:57.441Z,98105.00
2022-08-25T18:23:00.437Z,98104.00
2022-08-25T18:28:03.473Z,98108.00
2022-08-25T18:33:06.568Z,98102.00
2022-08-25T18:38:28.183Z,98102.00
2022-08-25T18:43:33.863Z,98102.00
2022-08-25T18:48:37.231Z,98112.00
2022-08-25T18:53:50.465Z,98114.00
2022-08-25T18:58:53.886Z,98120.00
2022-08-25T19:03:57.336Z,98122.00
2022-08-25T19:09:00.046Z,98113.00
2022-08-25T19:14:02.826Z,98117.00
2022-08-25T19:19:07.859Z,98116.00
2022-08-25T19:24:13.137Z,98114.00
2022-08-25T19:29:17.606Z,98115.00
2022-08-25T19:34:30.345Z,98117.00
2022-08-25T19:39:39.063Z,98118.00
2022-08-25T19:44:42.568Z,98115.00
2022-08-25T19:49:45.541Z,98100.00
2022-08-25T19:54:50.110Z,98116.00
2022-08-25T19:59:54.868Z,98104.00
2022-08-25T20:04:59.980Z,98106.00
2022-08-25T20:10:05.246Z,98113.00
2022-08-25T20:15:09.738Z,98114.00
2022-08-25T20:20:15.828Z,98117.00
2022-08-25T20:25:24.834Z,98117.00
2022-08-25T20:30:30.205Z,98122.00
2022-08-25T20:35:35.875Z,98130.00
2022-08-25T20:40:41.808Z,98128.00
2022-08-25T20:45:46.244Z,98125.00
2022-08-25T20:50:54.391Z,98126.00
2022-08-25T20:56:00.644Z,98120.00
2022-08-25T21:01:03.783Z,98127.00
2022-08-25T21:06:08.932Z,98115.00
2022-08-25T21:11:18.084Z,98113.00
2022-08-25T21:16:21.682Z,98111.00
2022-08-25T21:21:26.242Z,98111.00
2022-08-25T21:26:30.933Z,98107.00
2022-08-25T21:31:37.123Z,98092.00
2022-08-25T21:36:42.396Z,98094.00
2022-08-25T21:41:45.733Z,98091.00
2022-08-25T21:46:53.944Z,98087.00
2022-08-25T21:52:02.421Z,98078.00
2022-08-25T21:57:07.753Z,98077.00
2022-08-25T22:02:13.331Z,98079.00
2022-08-25T22:07:17.163Z,98076.00
2022-08-25T22:12:20.342Z,98069.00
2022-08-25T22:17:24.478Z,98066.00
2022-08-25T22:22:27.529Z,98068.00
2022-08-25T22:27:30.472Z,98075.00
2022-08-25T22:32:33.324Z,98071.00
2022-08-25T22:37:36.907Z,98074.00
2022-08-25T22:42:40.260Z,98072.00
2022-08-25T22:47:43.532Z,98068.00
2022-08-25T22:52:46.677Z,98067.00
2022-08-25T22:57:50.691Z,98062.00
2022-08-25T23:02:57.581Z,98058.00
2022-08-25T23:08:00.272Z,98053.00
2022-08-25T23:13:03.262Z,98039.00
2022-08-25T23:18:10.212Z,98042.00
2022-08-25T23:23:14.083Z,98043.00
2022-08-25T23:28:17.022Z,98038.00
2022-08-25T23:33:21.623Z,98034.00
2022-08-25T23:38:24.403Z,98023.00
2022-08-25T23:43:27.476Z,98016.00
2022-08-25T23:48:30.908Z,98009.00
2022-08-25T23:53:35.454Z,98014.00
2022-08-25T23:58:38.212Z,98001.00
